Time;durP1;ratioP1;P1;durP2;ratioP2;P2;SDS_P1;SDS_P2;PMS_P1;PMS_P2;Temp;Humidity;BMP_temperature;BMP_pressure;BME280_temperature;BME280_humidity;BME280_pressure;Samples;Min_cycle;Max_cycle;Signal;HPM_P1;HPM_P2
2023/11/02 00:02:03;;;;;;;20.40;10.75;;;;;;;14.54;86.47;98158.66;5035184;28;20038;-53
2023/11/02 00:04:28;;;;;;;20.57;10.07;;;;;;;14.61;86.09;98162.47;5040638;28;20041;-54
2023/11/02 00:06:57;;;;;;;20.50;9.88;;;;;;;14.64;85.74;98160.47;5032813;28;20066;-50
2023/11/02 00:09:27;;;;;;;18.58;10.25;;;;;;;14.65;85.58;98164.75;5032557;28;20624;-51
2023/11/02 00:11:55;;;;;;;14.63;8.57;;;;;;;14.59;85.81;98154.75;5038319;28;20048;-48
2023/11/02 00:14:22;;;;;;;22.25;9.95;;;;;;;14.41;85.68;98127.34;5034797;28;20457;-51
2023/11/02 00:16:49;;;;;;;18.90;9.18;;;;;;;14.67;85.59;98156.78;5035241;28;20445;-53
2023/11/02 00:19:21;;;;;;;21.25;10.73;;;;;;;14.68;85.54;98153.22;5031792;28;20419;-50
2023/11/02 00:21:47;;;;;;;16.05;9.07;;;;;;;14.74;85.18;98147.53;5033663;28;20045;-52
2023/11/02 00:24:13;;;;;;;17.58;9.68;;;;;;;14.81;85.10;98146.13;5051535;28;20049;-54
2023/11/02 00:26:39;;;;;;;21.23;10.45;;;;;;;14.84;84.79;98144.09;5033446;28;20119;-51
2023/11/02 00:29:05;;;;;;;22.17;10.30;;;;;;;14.84;84.41;98146.72;5041380;28;20040;-53
2023/11/02 00:31:32;;;;;;;19.35;10.57;;;;;;;14.70;85.13;98140.88;5035412;28;20036;-50
2023/11/02 00:33:58;;;;;;;14.07;7.85;;;;;;;14.64;85.11;98138.72;5054487;28;20147;-52
2023/11/02 00:36:23;;;;;;;16.75;9.30;;;;;;;14.55;85.65;98136.78;5049935;28;20041;-51
2023/11/02 00:38:49;;;;;;;18.02;9.63;;;;;;;14.29;85.61;98096.84;5033604;28;20140;-55
2023/11/02 00:41:15;;;;;;;21.67;10.75;;;;;;;14.57;86.08;98134.88;5034685;28;20626;-53
2023/11/02 00:43:41;;;;;;;20.05;9.98;;;;;;;14.64;85.69;98125.63;5035922;28;20552;-53
2023/11/02 00:46:07;;;;;;;16.77;9.43;;;;;;;14.68;85.67;98121.81;5051179;28;20079;-51
2023/11/02 00:48:33;;;;;;;19.52;9.77;;;;;;;14.34;85.60;98068.63;5032430;28;20033;-53
2023/11/02 00:51:11;;;;;;;17.95;9.68;;;;;;;14.61;85.88;98123.22;5034569;28;20060;-53
2023/11/02 00:53:44;;;;;;;17.98;9.48;;;;;;;14.62;85.99;98114.44;5035584;28;20094;-53
2023/11/02 00:56:11;;;;;;;20.83;10.57;;;;;;;14.58;85.79;98113.00;5034958;28;20623;-51
2023/11/02 00:58:44;;;;;;;18.73;9.55;;;;;;;14.62;86.13;98120.50;5030070;28;20130;-51
2023/11/02 01:01:15;;;;;;;24.00;9.77;;;;;;;14.71;85.97;98113.72;5031641;28;20505;-53
2023/11/02 01:03:46;;;;;;;18.95;10.75;;;;;;;14.74;86.04;98109.13;5033891;28;20052;-53
2023/11/02 01:06:19;;;;;;;19.10;10.07;;;;;;;14.79;86.18;98112.22;5050168;28;20038;-52
2023/11/02 01:08:59;;;;;;;19.55;10.88;;;;;;;14.84;86.29;98110.09;5033964;28;20036;-53
2023/11/02 01:11:34;;;;;;;18.52;10.05;;;;;;;14.90;85.75;98114.00;5055183;28;20038;-54
2023/11/02 01:14:30;;;;;;;16.75;8.88;;;;;;;14.92;86.00;98101.63;5031354;28;20037;-55
2023/11/02 01:16:56;;;;;;;20.17;10.10;;;;;;;14.93;86.11;98107.69;5026866;28;20045;-52
2023/11/02 01:19:40;;;;;;;23.13;10.70;;;;;;;14.95;86.74;98104.03;5030072;28;20048;-51
2023/11/02 01:22:29;;;;;;;18.42;9.77;;;;;;;14.94;86.58;98104.97;5033218;28;20045;-51
2023/11/02 01:25:01;;;;;;;18.13;10.03;;;;;;;14.92;86.71;98099.00;5045124;28;20421;-54
2023/11/02 01:27:29;;;;;;;19.58;9.90;;;;;;;14.66;86.69;98072.25;5048037;28;20091;-52
2023/11/02 01:29:55;;;;;;;19.80;11.05;;;;;;;14.89;87.12;98106.28;5047622;28;20151;-56
2023/11/02 01:32:21;;;;;;;20.25;10.43;;;;;;;14.89;87.08;98104.50;5025494;28;20078;-49
2023/11/02 01:34:47;;;;;;;21.45;10.95;;;;;;;14.60;87.48;98057.00;5035922;28;20044;-52
2023/11/02 01:37:13;;;;;;;18.33;10.38;;;;;;;14.83;88.03;98103.19;5030992;28;20112;-49
2023/11/02 01:39:45;;;;;;;22.00;11.38;;;;;;;14.80;88.30;98105.22;5033514;28;20152;-51
2023/11/02 01:42:19;;;;;;;28.15;11.55;;;;;;;14.78;88.81;98107.09;5033758;28;20051;-52
2023/11/02 01:44:59;;;;;;;26.00;11.55;;;;;;;14.66;89.82;98105.41;5030867;28;20044;-48
2023/11/02 01:47:56;;;;;;;20.95;11.27;;;;;;;14.67;90.46;98113.16;5025621;28;20132;-51
2023/11/02 01:50:33;;;;;;;20.92;11.25;;;;;;;14.66;90.33;98108.03;5052338;28;20041;-50
2023/11/02 01:53:24;;;;;;;27.30;12.35;;;;;;;14.63;90.79;98103.03;5048442;28;20497;-51
2023/11/02 01:56:07;;;;;;;22.33;11.95;;;;;;;14.40;91.32;98069.00;5034395;28;20551;-49
2023/11/02 01:58:44;;;;;;;22.98;11.60;;;;;;;14.62;91.69;98110.03;5019501;28;20079;-53
2023/11/02 02:01:23;;;;;;;20.30;11.95;;;;;;;14.59;91.78;98104.22;5049018;28;20060;-51
2023/11/02 02:04:16;;;;;;;18.13;9.60;;;;;;;14.56;92.63;98112.28;5025918;28;20159;-53
2023/11/02 02:06:48;;;;;;;16.20;8.80;;;;;;;14.53;92.64;98108.13;5046500;28;20072;-54
2023/11/02 02:09:23;;;;;;;12.10;6.43;;;;;;;14.45;92.54;98115.69;5026056;28;20041;-49
2023/11/02 02:12:10;;;;;;;11.52;5.30;;;;;;;14.37;92.83;98111.06;5045732;28;20136;-52
2023/11/02 02:15:02;;;;;;;8.10;4.50;;;;;;;14.11;92.28;98093.84;5035385;28;20119;-50
2023/11/02 02:17:57;;;;;;;7.90;4.20;;;;;;;14.17;92.29;98116.91;5031759;28;20386;-55
2023/11/02 02:20:48;;;;;;;5.70;3.55;;;;;;;13.90;91.80;98088.41;5031881;28;20168;-55
2023/11/02 02:23:36;;;;;;;6.63;3.60;;;;;;;13.98;91.97;98113.97;5033607;28;20049;-52
2023/11/02 02:26:23;;;;;;;6.00;3.78;;;;;;;13.92;91.61;98119.66;5035665;28;20071;-50
2023/11/02 02:29:13;;;;;;;7.05;3.78;;;;;;;13.85;91.62;98113.22;5029401;28;20045;-52
2023/11/02 02:31:51;;;;;;;5.90;3.30;;;;;;;13.82;91.43;98119.47;5048213;28;20049;-49
2023/11/02 02:34:36;;;;;;;6.57;3.55;;;;;;;13.78;91.50;98114.56;5033790;28;20417;-52
2023/11/02 02:37:01;;;;;;;6.38;3.58;;;;;;;13.77;91.59;98116.34;5034038;28;21025;-54
2023/11/02 02:39:28;;;;;;;7.05;3.63;;;;;;;13.62;91.67;98091.34;5033322;28;20068;-48
2023/11/02 02:41:59;;;;;;;8.15;4.03;;;;;;;13.73;92.13;98111.47;5031891;28;20943;-51
2023/11/02 02:44:27;;;;;;;6.75;4.18;;;;;;;13.73;92.49;98114.06;5032220;28;20049;-49
2023/11/02 02:46:54;;;;;;;8.10;4.35;;;;;;;13.73;92.72;98112.31;5048416;28;20104;-50
2023/11/02 02:49:22;;;;;;;8.18;4.70;;;;;;;13.72;92.97;98115.84;5045365;28;20124;-54
2023/11/02 02:51:49;;;;;;;10.98;4.68;;;;;;;13.73;93.18;98112.31;5028231;28;20033;-52
2023/11/02 02:54:17;;;;;;;7.85;4.20;;;;;;;13.73;93.64;98119.31;4997700;28;20053;-50
2023/11/02 02:56:45;;;;;;;6.97;3.70;;;;;;;13.72;93.91;98115.84;5015697;28;20095;-50
2023/11/02 02:59:18;;;;;;;6.03;2.83;;;;;;;13.66;93.49;98108.47;5032105;28;20369;-57
2023/11/02 03:01:46;;;;;;;5.40;3.20;;;;;;;13.59;93.43;98107.25;5047623;28;20080;-51
2023/11/02 03:04:14;;;;;;;4.43;2.67;;;;;;;13.56;92.69;98117.91;5047836;28;20123;-51
2023/11/02 03:06:45;;;;;;;4.85;2.50;;;;;;;13.48;92.28;98117.63;5032365;28;20041;-52
2023/11/02 03:09:15;;;;;;;3.25;2.10;;;;;;;13.42;91.62;98115.44;5046449;28;20034;-51
2023/11/02 03:11:43;;;;;;;3.83;2.20;;;;;;;13.35;90.97;98120.25;5043528;28;20064;-53
2023/11/02 03:14:12;;;;;;;5.00;2.50;;;;;;;13.31;90.62;98120.56;5028878;28;20128;-48
2023/11/02 03:16:40;;;;;;;5.53;2.80;;;;;;;13.28;90.42;98112.97;5032970;28;20090;-49
2023/11/02 03:19:06;;;;;;;4.55;2.60;;;;;;;13.07;90.17;98074.38;5040337;28;20803;-51
2023/11/02 03:21:32;;;;;;;5.65;2.80;;;;;;;13.31;90.16;98115.34;5026227;28;20045;-50
2023/11/02 03:24:17;;;;;;;3.88;2.67;;;;;;;13.27;90.09;98112.13;5032991;28;20037;-52
2023/11/02 03:26:57;;;;;;;5.13;3.22;;;;;;;13.26;90.11;98117.47;5027855;28;20131;-49
2023/11/02 03:29:49;;;;;;;3.60;2.60;;;;;;;13.21;89.63;98109.97;5033560;28;20037;-50
2023/11/02 03:32:21;;;;;;;3.78;2.40;;;;;;;13.19;89.44;98106.59;5040505;28;20056;-53
2023/11/02 03:34:57;;;;;;;3.25;2.42;;;;;;;13.14;88.98;98111.31;5034106;28;20049;-51
2023/11/02 03:37:42;;;;;;;4.30;2.40;;;;;;;13.11;88.62;98115.00;5049965;28;20042;-50
2023/11/02 03:40:24;;;;;;;5.60;2.78;;;;;;;13.08;88.41;98109.94;5017952;28;20052;-52
2023/11/02 03:42:56;;;;;;;5.60;3.08;;;;;;;13.04;88.33;98111.09;5032257;28;20056;-48
2023/11/02 03:45:48;;;;;;;6.47;3.10;;;;;;;13.04;88.16;98123.31;5035816;28;20583;-52
2023/11/02 03:48:51;;;;;;;6.50;2.92;;;;;;;12.88;88.19;98091.38;5050834;28;20049;-48
2023/11/02 03:51:35;;;;;;;4.43;2.72;;;;;;;12.99;87.88;98123.63;5032634;28;20112;-54
2023/11/02 03:54:29;;;;;;;5.05;3.03;;;;;;;12.97;88.03;98122.91;5043375;28;20069;-51
2023/11/02 03:57:00;;;;;;;5.38;2.50;;;;;;;12.95;87.68;98116.94;5035128;28;22056;-50
2023/11/02 03:59:40;;;;;;;6.55;3.00;;;;;;;12.92;87.71;98111.13;5036058;28;20776;-52
2023/11/02 04:02:07;;;;;;;;;;;;;;;12.90;87.63;98111.22;5032346;28;20132;-49
2023/11/02 04:04:40;;;;;;;3.88;2.08;;;;;;;12.57;87.69;98066.59;5058977;28;19916;-50
2023/11/02 04:07:18;;;;;;;3.80;2.45;;;;;;;12.80;87.31;98107.56;5050850;28;20140;-50
2023/11/02 04:09:49;;;;;;;5.03;2.50;;;;;;;12.80;87.24;98115.41;5038365;28;20097;-48
2023/11/02 04:12:28;;;;;;;6.68;3.38;;;;;;;12.77;87.22;98104.34;5039727;28;20049;-49
2023/11/02 04:14:55;;;;;;;3.75;2.47;;;;;;;12.76;87.36;98107.91;5034901;28;20037;-50
2023/11/02 04:17:21;;;;;;;4.38;2.42;;;;;;;12.72;87.26;98099.44;5038185;28;20036;-56
2023/11/02 04:19:47;;;;;;;7.38;3.65;;;;;;;12.69;87.61;98097.88;5041186;28;20041;-53
2023/11/02 04:22:13;;;;;;;5.97;2.75;;;;;;;12.72;87.74;98100.25;5021198;28;20048;-48
2023/11/02 04:24:42;;;;;;;5.57;2.90;;;;;;;12.70;87.88;98098.72;5037975;28;20076;-52
2023/11/02 04:27:09;;;;;;;5.35;2.78;;;;;;;12.68;87.84;98105.78;5033535;28;20033;-48
2023/11/02 04:29:35;;;;;;;3.30;2.40;;;;;;;12.68;88.20;98108.41;5050571;28;20114;-48
2023/11/02 04:32:01;;;;;;;9.68;3.75;;;;;;;12.52;88.26;98081.69;5051051;28;20768;-49
2023/11/02 04:34:26;;;;;;;7.82;4.38;;;;;;;12.67;88.59;98104.13;5034184;28;20899;-51
2023/11/02 04:36:53;;;;;;;5.05;2.80;;;;;;;12.64;88.79;98106.94;5037185;28;20044;-52
2023/11/02 04:39:21;;;;;;;6.75;3.15;;;;;;;12.64;88.98;98105.19;5035063;28;20084;-54
2023/11/02 04:41:47;;;;;;;5.63;2.67;;;;;;;12.61;88.75;98104.56;5030863;28;20519;-51
2023/11/02 04:44:14;;;;;;;6.20;3.50;;;;;;;12.62;89.11;98101.00;5033096;28;20041;-51
2023/11/02 04:46:40;;;;;;;3.88;2.60;;;;;;;12.60;88.79;98102.88;5032968;28;20049;-49
2023/11/02 04:49:08;;;;;;;6.60;2.90;;;;;;;12.58;88.69;98097.78;5029838;28;20132;-52
2023/11/02 04:51:35;;;;;;;4.93;2.75;;;;;;;12.57;88.90;98101.31;5049558;28;20424;-50
2023/11/02 04:54:01;;;;;;;4.68;2.97;;;;;;;12.57;89.07;98101.31;5034340;28;20053;-48
2023/11/02 04:56:27;;;;;;;5.50;2.97;;;;;;;12.55;89.12;98097.16;5032619;28;20089;-53
2023/11/02 04:58:53;;;;;;;5.78;2.72;;;;;;;12.34;89.05;98064.72;5048424;28;20132;-49
2023/11/02 05:01:19;;;;;;;6.07;2.65;;;;;;;12.53;89.43;98085.97;5032898;28;20147;-49
2023/11/02 05:03:45;;;;;;;6.88;2.80;;;;;;;12.47;89.66;98084.63;5031615;28;20075;-51
2023/11/02 05:06:11;;;;;;;7.13;3.33;;;;;;;12.49;89.54;98094.94;5032869;28;20049;-50
2023/11/02 05:08:36;;;;;;;7.28;2.58;;;;;;;12.47;89.59;98086.38;5033798;28;20068;-47
2023/11/02 05:11:02;;;;;;;7.22;2.28;;;;;;;12.45;89.79;98083.91;5033701;28;20068;-53
2023/11/02 05:13:28;;;;;;;3.65;2.50;;;;;;;12.42;89.96;98084.09;5031250;28;20098;-54
2023/11/02 05:15:58;;;;;;;5.55;2.80;;;;;;;12.29;89.52;98076.28;5030204;28;20041;-53
2023/11/02 05:18:24;;;;;;;5.35;2.40;;;;;;;12.24;89.48;98060.13;5030774;28;20048;-51
2023/11/02 05:20:57;;;;;;;6.90;2.85;;;;;;;12.39;89.83;98086.09;5031813;28;20048;-52
2023/11/02 05:23:24;;;;;;;6.95;2.65;;;;;;;12.41;89.72;98079.81;5029733;28;20041;-55
2023/11/02 05:25:50;;;;;;;6.03;2.72;;;;;;;12.38;89.57;98067.00;5044196;28;20034;-49
2023/11/02 05:28:16;;;;;;;5.80;2.80;;;;;;;12.37;89.47;98064.50;5030649;28;20060;-53
2023/11/02 05:30:42;;;;;;;7.05;2.45;;;;;;;12.39;89.20;98071.28;5032537;28;20029;-55
2023/11/02 05:33:08;;;;;;;4.70;2.47;;;;;;;12.20;89.25;98039.56;5032415;28;20115;-52
2023/11/02 05:35:33;;;;;;;5.07;2.10;;;;;;;12.38;89.28;98068.78;5033286;28;20041;-50
2023/11/02 05:37:59;;;;;;;4.18;2.00;;;;;;;12.09;89.21;98029.06;5047850;28;20045;-52
2023/11/02 05:40:25;;;;;;;5.63;2.80;;;;;;;12.37;88.67;98085.34;5046395;28;20060;-51
2023/11/02 05:42:51;;;;;;;4.90;2.92;;;;;;;12.38;88.98;98094.84;4985246;28;1265932;-51
2023/11/02 05:45:18;;;;;;;3.53;2.40;;;;;;;12.38;89.02;98092.22;5040752;28;20037;-54
2023/11/02 05:47:44;;;;;;;5.28;2.35;;;;;;;12.40;88.86;98100.78;5043823;28;20044;-52
2023/11/02 05:50:11;;;;;;;6.03;3.03;;;;;;;12.40;88.89;98093.81;5027508;28;20029;-52
2023/11/02 05:52:37;;;;;;;3.92;2.30;;;;;;;12.43;88.86;98095.38;5036844;28;20546;-48
2023/11/02 05:55:05;;;;;;;3.13;1.95;;;;;;;12.41;88.88;98082.44;5037729;28;20040;-54
2023/11/02 05:57:31;;;;;;;5.07;2.50;;;;;;;12.40;88.66;98092.97;5041588;28;20049;-48
2023/11/02 05:59:58;;;;;;;4.03;2.20;;;;;;;12.23;88.61;98062.81;5040591;28;20118;-51
2023/11/02 06:02:24;;;;;;;6.13;2.50;;;;;;;12.39;88.36;98086.91;5038610;28;20046;-53
2023/11/02 06:04:50;;;;;;;5.32;2.80;;;;;;;12.36;88.73;98100.16;5029616;28;20049;-50
2023/11/02 06:07:16;;;;;;;6.30;2.80;;;;;;;12.37;88.34;98085.34;5053505;28;20045;-55
2023/11/02 06:09:42;;;;;;;4.90;2.25;;;;;;;12.34;88.37;98088.16;5055378;28;20049;-54
2023/11/02 06:12:09;;;;;;;3.83;2.00;;;;;;;12.36;88.24;98086.28;5047151;28;20504;-55
2023/11/02 06:14:36;;;;;;;4.68;2.10;;;;;;;12.21;87.94;98070.75;5039134;28;20517;-51
2023/11/02 06:17:03;;;;;;;4.13;2.75;;;;;;;12.35;87.79;98077.66;5048596;28;20144;-53
2023/11/02 06:19:29;;;;;;;4.47;2.20;;;;;;;12.33;87.94;98069.09;5045480;28;20097;-51
2023/11/02 06:21:55;;;;;;;5.18;2.25;;;;;;;12.32;87.99;98070.03;5051364;28;20455;-53
2023/11/02 06:24:21;;;;;;;5.45;2.13;;;;;;;12.16;87.86;98056.34;5033488;28;20047;-51
2023/11/02 06:26:47;;;;;;;3.30;1.60;;;;;;;12.30;87.91;98080.53;5029720;28;20037;-52
2023/11/02 06:29:13;;;;;;;4.88;1.92;;;;;;;12.28;87.94;98063.34;5032576;28;20425;-54
2023/11/02 06:31:39;;;;;;;3.92;2.30;;;;;;;12.12;87.74;98044.47;5046399;28;20550;-52
2023/11/02 06:34:05;;;;;;;6.45;2.33;;;;;;;12.26;87.76;98066.06;5050733;28;20506;-54
2023/11/02 06:36:31;;;;;;;5.65;2.22;;;;;;;12.27;87.65;98074.72;5049161;28;20900;-53
2023/11/02 06:38:58;;;;;;;4.25;1.70;;;;;;;12.27;87.49;98061.69;5047152;28;20068;-52
2023/11/02 06:41:24;;;;;;;6.57;2.33;;;;;;;12.24;87.35;98064.50;5050117;28;20036;-52
2023/11/02 06:43:50;;;;;;;3.00;1.80;;;;;;;12.22;87.00;98054.19;5045650;28;20047;-62
2023/11/02 06:46:16;;;;;;;3.88;1.60;;;;;;;12.18;87.01;98050.13;5049320;28;20150;-40
2023/11/02 06:48:42;;;;;;;8.80;2.08;;;;;;;12.08;86.91;98037.81;5045009;28;20131;-40
2023/11/02 06:51:08;;;;;;;2.60;1.38;;;;;;;12.05;86.76;98048.41;5031052;28;20504;-39
2023/11/02 06:53:34;;;;;;;2.13;1.15;;;;;;;12.15;86.41;98057.28;5044354;28;20041;-40
2023/11/02 06:56:01;;;;;;;3.28;1.55;;;;;;;12.09;86.54;98048.09;5045274;28;20082;-40
2023/11/02 06:58:27;;;;;;;2.00;1.30;;;;;;;12.06;86.19;98050.09;5049733;28;20043;-40
2023/11/02 07:00:53;;;;;;;1.90;1.30;;;;;;;12.04;86.43;98054.53;5049666;28;20048;-40
2023/11/02 07:03:20;;;;;;;1.33;1.10;;;;;;;11.99;85.50;98056.63;5049077;28;20041;-41
2023/11/02 07:05:46;;;;;;;2.92;1.40;;;;;;;11.98;85.42;98048.00;5052920;28;20076;-41
2023/11/02 07:08:12;;;;;;;2.70;1.20;;;;;;;11.96;84.89;98033.41;5042130;28;20458;-40
2023/11/02 07:10:38;;;;;;;3.22;1.48;;;;;;;11.92;84.77;98037.16;5029059;28;20037;-41
2023/11/02 07:13:04;;;;;;;5.85;1.27;;;;;;;11.73;84.43;98008.88;5031706;28;20110;-41
2023/11/02 07:15:30;;;;;;;4.40;1.52;;;;;;;11.67;84.13;98022.28;5030462;28;20099;-40
2023/11/02 07:17:56;;;;;;;3.78;1.20;;;;;;;11.83;83.81;98049.81;5045154;28;20032;-45
2023/11/02 07:20:22;;;;;;;8.10;2.50;;;;;;;11.67;83.98;98020.47;5031395;28;20049;-39
2023/11/02 07:22:48;;;;;;;6.25;1.70;;;;;;;11.84;83.86;98054.09;5035044;28;20036;-40
2023/11/02 07:25:14;;;;;;;3.25;1.20;;;;;;;11.67;83.67;98011.88;5028159;28;20049;-36
2023/11/02 07:27:40;;;;;;;10.07;2.15;;;;;;;11.84;83.71;98048.88;5044137;28;20048;-40
2023/11/02 07:30:06;;;;;;;5.75;2.25;;;;;;;11.86;83.80;98054.84;5042722;28;20041;-40
2023/11/02 07:32:32;;;;;;;7.60;1.40;;;;;;;11.79;83.63;98039.72;5054512;28;20036;-40
2023/11/02 07:34:58;;;;;;;4.35;1.20;;;;;;;11.85;83.69;98057.53;5051273;28;20041;-40
2023/11/02 07:37:24;;;;;;;2.55;1.20;;;;;;;11.84;84.15;98055.88;5049379;28;20056;-41
2023/11/02 07:39:50;;;;;;;2.40;1.52;;;;;;;11.83;84.54;98062.84;5035953;28;20087;-41
2023/11/02 07:42:15;;;;;;;4.25;1.65;;;;;;;11.76;84.56;98053.78;5043998;28;20056;-46
2023/11/02 07:44:43;;;;;;;3.42;2.08;;;;;;;11.79;84.61;98060.53;5053092;28;20041;-39
2023/11/02 07:47:09;;;;;;;9.40;2.00;;;;;;;11.70;85.14;98051.53;5045792;28;20118;-37
2023/11/02 07:49:37;;;;;;;4.85;1.90;;;;;;;11.47;85.10;98023.53;5042803;28;20595;-37
2023/11/02 07:52:03;;;;;;;2.65;1.55;;;;;;;11.45;85.66;98035.84;5046886;28;20512;-38
2023/11/02 07:54:29;;;;;;;2.65;1.70;;;;;;;11.55;85.39;98062.09;5052280;28;20119;-39
2023/11/02 07:56:55;;;;;;;6.30;1.60;;;;;;;11.52;85.71;98068.31;5052646;28;20045;-38
2023/11/02 07:59:21;;;;;;;3.88;1.55;;;;;;;11.41;85.40;98063.78;5049514;28;20082;-38
2023/11/02 08:01:46;;;;;;;7.18;1.58;;;;;;;11.31;85.34;98077.47;5042869;28;20050;-37
2023/11/02 08:04:13;;;;;;;5.82;1.52;;;;;;;11.19;85.23;98070.47;5038557;28;20064;-38
2023/11/02 08:06:39;;;;;;;1.70;1.02;;;;;;;11.06;85.14;98080.78;5040734;28;20044;-40
2023/11/02 08:09:05;;;;;;;1.80;1.15;;;;;;;10.93;85.61;98074.69;5023470;28;20037;-38
2023/11/02 08:11:37;;;;;;;4.95;1.67;;;;;;;10.77;85.85;98076.53;5036079;28;20048;-40
2023/11/02 08:14:04;;;;;;;6.57;1.65;;;;;;;10.66;86.03;98074.59;5034446;28;20052;-41
2023/11/02 08:16:29;;;;;;;1.63;1.02;;;;;;;10.56;87.07;98079.53;5043110;28;20049;-40
2023/11/02 08:18:55;;;;;;;5.07;1.45;;;;;;;10.49;86.70;98079.97;5051859;28;20044;-39
2023/11/02 08:21:21;;;;;;;5.50;1.60;;;;;;;10.41;86.57;98084.78;5053949;28;20198;-40
2023/11/02 08:23:47;;;;;;;3.53;1.50;;;;;;;10.30;86.53;98088.00;5058954;28;20427;-39
2023/11/02 08:26:13;;;;;;;3.05;1.20;;;;;;;10.25;86.74;98084.00;5048310;28;20037;-40
2023/11/02 08:28:39;;;;;;;3.25;1.35;;;;;;;10.20;87.22;98068.72;5041942;28;20076;-39
2023/11/02 08:31:05;;;;;;;4.00;1.50;;;;;;;10.18;87.71;98086.13;5034805;28;20076;-39
2023/11/02 08:33:31;;;;;;;7.15;1.75;;;;;;;10.13;87.74;98081.16;5060330;28;20071;-39
2023/11/02 08:35:57;;;;;;;2.70;1.20;;;;;;;10.12;87.90;98087.28;5043803;28;20376;-40
2023/11/02 08:38:23;;;;;;;4.68;2.70;;;;;;;10.11;88.00;98083.00;5048813;28;20079;-41
2023/11/02 08:40:49;;;;;;;5.43;1.60;;;;;;;10.09;87.90;98081.44;5052230;28;20065;-41
2023/11/02 08:43:15;;;;;;;5.82;1.25;;;;;;;10.09;88.41;98077.09;5054049;28;20049;-41
2023/11/02 08:45:41;;;;;;;5.13;1.52;;;;;;;10.04;88.39;98079.13;5024137;28;20057;-42
2023/11/02 08:48:08;;;;;;;3.85;1.52;;;;;;;9.78;88.78;98044.28;5050007;28;20037;-38
2023/11/02 08:50:35;;;;;;;2.90;1.60;;;;;;;9.88;88.89;98083.50;5039636;28;20045;-38
2023/11/02 08:53:01;;;;;;;4.07;1.75;;;;;;;9.83;89.70;98079.50;5036365;28;20047;-42
2023/11/02 08:55:27;;;;;;;9.52;1.85;;;;;;;9.79;90.33;98082.25;5036020;28;20037;-41
2023/11/02 08:57:53;;;;;;;4.72;1.60;;;;;;;9.79;90.13;98089.19;5036133;28;20041;-40
2023/11/02 09:00:19;;;;;;;7.03;1.42;;;;;;;9.74;90.17;98088.63;5034186;28;20055;-39
2023/11/02 09:02:45;;;;;;;6.28;1.80;;;;;;;9.71;89.96;98084.47;5045087;28;20092;-39
2023/11/02 09:05:11;;;;;;;4.93;1.85;;;;;;;9.53;90.64;98056.94;5038247;28;20048;-40
2023/11/02 09:07:37;;;;;;;4.15;1.63;;;;;;;9.65;90.91;98084.81;5033761;28;20072;-41
2023/11/02 09:10:03;;;;;;;4.32;2.40;;;;;;;9.61;91.55;98072.09;5047715;28;20041;-38
2023/11/02 09:12:30;;;;;;;2.55;1.75;;;;;;;9.61;91.59;98090.25;5039459;28;20107;-41
2023/11/02 09:14:56;;;;;;;1.98;1.42;;;;;;;9.55;91.47;98080.22;5038865;28;20040;-41
2023/11/02 09:17:24;;;;;;;5.07;2.10;;;;;;;9.49;90.91;98075.34;5034671;28;20468;-40
2023/11/02 09:19:50;;;;;;;2.67;1.40;;;;;;;9.47;91.41;98067.69;5029252;28;20045;-39
2023/11/02 09:22:16;;;;;;;5.18;2.00;;;;;;;9.49;91.12;98068.41;5033104;28;20483;-41
2023/11/02 09:24:42;;;;;;;4.85;2.20;;;;;;;9.48;91.82;98066.75;5045662;28;20049;-39
2023/11/02 09:27:08;;;;;;;1.70;1.30;;;;;;;9.50;91.42;98058.88;5031018;28;20532;-40
2023/11/02 09:29:34;;;;;;;2.08;1.20;;;;;;;9.47;91.04;98069.44;5033974;28;20048;-43
2023/11/02 09:32:00;;;;;;;1.77;1.13;;;;;;;9.43;91.52;98063.56;5044917;28;20051;-41
2023/11/02 09:34:27;;;;;;;1.80;0.98;;;;;;;9.47;91.48;98056.47;5033818;28;20042;-40
2023/11/02 09:36:53;;;;;;;3.22;1.50;;;;;;;9.43;91.00;98054.94;5038013;28;20046;-42
2023/11/02 09:39:19;;;;;;;4.35;1.30;;;;;;;9.44;90.93;98060.06;5051771;28;20044;-41
2023/11/02 09:41:45;;;;;;;2.63;1.10;;;;;;;9.45;91.46;98056.53;5051898;28;20052;-40
2023/11/02 09:44:12;;;;;;;2.60;1.08;;;;;;;9.44;91.08;98057.47;5018683;28;20048;-41
2023/11/02 09:46:37;;;;;;;4.25;1.33;;;;;;;9.46;90.95;98058.22;5016138;28;20044;-40
2023/11/02 09:49:04;;;;;;;4.35;1.95;;;;;;;9.48;90.87;98058.13;5036220;28;20424;-42
2023/11/02 09:51:30;;;;;;;1.73;1.20;;;;;;;9.41;91.21;98044.69;5053724;28;20041;-41
2023/11/02 09:53:57;;;;;;;2.90;1.17;;;;;;;9.46;91.08;98060.81;5045717;28;20457;-40
2023/11/02 09:56:23;;;;;;;2.80;1.00;;;;;;;9.42;90.60;98068.88;5048317;28;20513;-42
2023/11/02 09:58:50;;;;;;;4.10;1.10;;;;;;;9.40;90.12;98063.75;5044639;28;20048;-41
2023/11/02 10:01:16;;;;;;;1.52;0.95;;;;;;;9.23;90.17;98037.91;5046130;28;20112;-41
2023/11/02 10:03:42;;;;;;;2.58;1.13;;;;;;;9.40;89.98;98057.72;5049373;28;20518;-40
2023/11/02 10:06:08;;;;;;;2.00;1.13;;;;;;;9.42;90.12;98071.44;5033989;28;20065;-39
2023/11/02 10:08:35;;;;;;;1.67;1.10;;;;;;;9.35;90.10;98068.34;5050587;28;20072;-40
2023/11/02 10:11:15;;;;;;;4.65;1.40;;;;;;;9.31;90.03;98075.47;5044640;28;20075;-40
2023/11/02 10:13:43;;;;;;;2.15;1.23;;;;;;;9.30;89.66;98085.94;5048441;28;20061;-40
2023/11/02 10:16:10;;;;;;;4.03;1.10;;;;;;;9.29;89.52;98085.09;5049564;28;20045;-40
2023/11/02 10:18:36;;;;;;;2.55;1.30;;;;;;;9.23;89.93;98071.63;5058303;28;20047;-40
2023/11/02 10:21:08;;;;;;;2.70;1.55;;;;;;;9.32;89.84;98084.91;5047109;28;20828;-41
2023/11/02 10:23:55;;;;;;;1.90;0.80;;;;;;;9.29;89.91;98085.09;5046406;28;20630;-40
2023/11/02 10:26:28;;;;;;;1.65;1.10;;;;;;;9.32;89.83;98082.31;5055024;28;20121;-40
2023/11/02 10:28:56;;;;;;;4.78;1.33;;;;;;;9.20;90.31;98051.88;5050549;28;20493;-41
2023/11/02 10:31:25;;;;;;;2.17;1.10;;;;;;;9.34;90.13;98085.66;5030567;28;20040;-41
2023/11/02 10:33:52;;;;;;;3.20;1.33;;;;;;;9.28;90.26;98077.38;5031901;28;20053;-41
2023/11/02 10:36:20;;;;;;;2.67;1.30;;;;;;;9.24;89.64;98088.84;5031817;28;20095;-40
2023/11/02 10:38:46;;;;;;;1.70;1.20;;;;;;;9.22;89.25;98088.91;5032998;28;20049;-40
2023/11/02 10:41:16;;;;;;;3.33;1.00;;;;;;;9.18;89.06;98089.16;5046392;28;20044;-39
2023/11/02 10:43:46;;;;;;;1.95;1.02;;;;;;;9.17;88.30;98095.28;5046169;28;20037;-58
2023/11/02 10:46:13;;;;;;;2.42;1.20;;;;;;;9.15;88.23;98104.91;5043597;28;20052;-39
2023/11/02 10:48:40;;;;;;;2.88;1.00;;;;;;;9.08;87.65;98098.38;5027199;28;20060;-40
2023/11/02 10:51:11;;;;;;;2.15;1.15;;;;;;;8.88;87.59;98078.69;5052927;28;20041;-40
2023/11/02 10:54:14;;;;;;;3.45;1.55;;;;;;;9.09;87.26;98106.06;5048701;28;20045;-38
2023/11/02 10:56:48;;;;;;;3.22;1.00;;;;;;;9.10;87.29;98114.69;5019850;28;20242;-42
2023/11/02 10:59:14;;;;;;;2.95;1.75;;;;;;;9.09;86.38;98110.41;5032837;28;20832;-39
2023/11/02 11:01:41;;;;;;;7.32;1.60;;;;;;;9.08;86.15;98112.16;5050984;28;20079;-40
2023/11/02 11:04:10;;;;;;;3.22;1.50;;;;;;;9.07;85.97;98112.25;5045002;28;20101;-39
2023/11/02 11:06:39;;;;;;;1.90;1.10;;;;;;;9.01;85.65;98115.16;5042359;28;20127;-39
2023/11/02 11:09:07;;;;;;;2.47;0.77;;;;;;;8.96;85.32;98120.59;5043803;28;20820;-41
2023/11/02 11:11:34;;;;;;;1.45;0.85;;;;;;;8.95;84.13;98123.28;5026748;28;20155;-40
2023/11/02 11:14:01;;;;;;;1.60;1.05;;;;;;;8.97;83.45;98132.63;5039698;28;20053;-39
2023/11/02 11:16:29;;;;;;;3.60;1.58;;;;;;;8.99;83.16;98132.56;5043339;28;20074;-40
2023/11/02 11:18:56;;;;;;;5.65;1.10;;;;;;;9.03;82.97;98129.72;5050496;28;20136;-39
2023/11/02 11:21:23;;;;;;;1.63;1.00;;;;;;;9.06;82.39;98132.13;5039282;28;20398;-39
2023/11/02 11:23:49;;;;;;;3.28;1.52;;;;;;;9.04;82.46;98125.38;5053102;28;20045;-39
2023/11/02 11:26:16;;;;;;;1.55;0.95;;;;;;;9.06;82.23;98129.53;5017690;28;20475;-40
2023/11/02 11:28:42;;;;;;;7.78;1.20;;;;;;;9.09;81.65;98138.94;5051362;28;20036;-39
2023/11/02 11:31:46;;;;;;;2.58;1.33;;;;;;;9.12;81.63;98131.81;5043373;28;20041;-40
2023/11/02 11:34:12;;;;;;;2.80;1.00;;;;;;;8.97;81.18;98106.72;5047936;28;20064;-43
2023/11/02 11:36:39;;;;;;;1.30;0.90;;;;;;;9.10;81.17;98133.66;5027309;28;20041;-39
2023/11/02 11:39:38;;;;;;;1.20;0.77;;;;;;;9.12;80.85;98138.75;5038991;28;20049;-39
2023/11/02 11:42:04;;;;;;;;;;;;;;;9.13;80.76;98130.91;5028075;28;20038;-39
2023/11/02 11:44:30;;;;;;;1.35;0.80;;;;;;;9.10;80.21;98141.44;5031341;28;20697;-39
2023/11/02 11:46:57;;;;;;;0.95;0.73;;;;;;;9.14;79.88;98129.16;5030653;28;20041;-41